sensor_id;sensor_type;location;lat;lon;timestamp;P1;durP1;ratioP1;P2;durP2;ratioP2
12224;SDS011;6175;50.956;11.064;2024-02-15T00:00:48;1.60;;;0.90;;
12224;SDS011;6175;50.956;11.064;2024-02-15T00:03:16;0.90;;;0.90;;
12224;SDS011;6175;50.956;11.064;2024-02-15T00:05:43;1.00;;;1.00;;
12224;SDS011;6175;50.956;11.064;2024-02-15T00:08:11;1.27;;;1.17;;
12224;SDS011;6175;50.956;11.064;2024-02-15T00:10:41;1.27;;;1.17;;
12224;SDS011;6175;50.956;11.064;2024-02-15T00:13:10;1.10;;;1.10;;
12224;SDS011;6175;50.956;11.064;2024-02-15T00:15:36;1.25;;;1.15;;
12224;SDS011;6175;50.956;11.064;2024-02-15T00:18:04;0.90;;;0.90;;
12224;SDS011;6175;50.956;11.064;2024-02-15T00:20:30;1.17;;;1.10;;
12224;SDS011;6175;50.956;11.064;2024-02-15T00:22:58;1.15;;;1.10;;
12224;SDS011;6175;50.956;11.064;2024-02-15T00:25:26;1.20;;;1.10;;
12224;SDS011;6175;50.956;11.064;2024-02-15T00:27:54;2.00;;;1.02;;
12224;SDS011;6175;50.956;11.064;2024-02-15T00:30:21;1.20;;;1.10;;
12224;SDS011;6175;50.956;11.064;2024-02-15T00:32:48;1.00;;;1.00;;
12224;SDS011;6175;50.956;11.064;2024-02-15T00:35:16;1.00;;;1.00;;
12224;SDS011;6175;50.956;11.064;2024-02-15T00:37:43;1.38;;;1.27;;
12224;SDS011;6175;50.956;11.064;2024-02-15T00:40:11;1.30;;;1.20;;
12224;SDS011;6175;50.956;11.064;2024-02-15T00:42:38;1.20;;;1.10;;
12224;SDS011;6175;50.956;11.064;2024-02-15T00:45:07;1.10;;;1.10;;
12224;SDS011;6175;50.956;11.064;2024-02-15T00:47:34;1.20;;;1.10;;
12224;SDS011;6175;50.956;11.064;2024-02-15T00:50:03;0.80;;;0.80;;
12224;SDS011;6175;50.956;11.064;2024-02-15T00:52:30;1.00;;;0.90;;
12224;SDS011;6175;50.956;11.064;2024-02-15T00:54:57;1.63;;;0.80;;
12224;SDS011;6175;50.956;11.064;2024-02-15T00:57:24;0.80;;;0.80;;
12224;SDS011;6175;50.956;11.064;2024-02-15T00:59:51;0.70;;;0.70;;
12224;SDS011;6175;50.956;11.064;2024-02-15T01:02:20;0.90;;;0.90;;
12224;SDS011;6175;50.956;11.064;2024-02-15T01:04:49;1.02;;;0.90;;
12224;SDS011;6175;50.956;11.064;2024-02-15T01:07:16;0.70;;;0.70;;
12224;SDS011;6175;50.956;11.064;2024-02-15T01:09:43;0.80;;;0.70;;
12224;SDS011;6175;50.956;11.064;2024-02-15T01:12:10;0.98;;;0.70;;
12224;SDS011;6175;50.956;11.064;2024-02-15T01:14:37;1.33;;;0.77;;
12224;SDS011;6175;50.956;11.064;2024-02-15T01:17:04;0.90;;;0.60;;
12224;SDS011;6175;50.956;11.064;2024-02-15T01:19:34;0.70;;;0.70;;
12224;SDS011;6175;50.956;11.064;2024-02-15T01:22:00;0.70;;;0.70;;
12224;SDS011;6175;50.956;11.064;2024-02-15T01:24:27;0.70;;;0.70;;
12224;SDS011;6175;50.956;11.064;2024-02-15T01:26:55;0.82;;;0.82;;
12224;SDS011;6175;50.956;11.064;2024-02-15T01:29:22;0.70;;;0.70;;
12224;SDS011;6175;50.956;11.064;2024-02-15T01:31:50;0.70;;;0.70;;
12224;SDS011;6175;50.956;11.064;2024-02-15T01:34:17;1.05;;;0.80;;
12224;SDS011;6175;50.956;11.064;2024-02-15T01:36:48;1.00;;;0.85;;
12224;SDS011;6175;50.956;11.064;2024-02-15T01:39:15;0.70;;;0.70;;
12224;SDS011;6175;50.956;11.064;2024-02-15T01:41:46;0.90;;;0.90;;
12224;SDS011;6175;50.956;11.064;2024-02-15T01:44:15;0.80;;;0.80;;
12224;SDS011;6175;50.956;11.064;2024-02-15T01:46:43;0.90;;;0.90;;
12224;SDS011;6175;50.956;11.064;2024-02-15T01:49:11;0.70;;;0.70;;
12224;SDS011;6175;50.956;11.064;2024-02-15T01:51:38;0.90;;;0.90;;
12224;SDS011;6175;50.956;11.064;2024-02-15T01:54:09;0.80;;;0.80;;
12224;SDS011;6175;50.956;11.064;2024-02-15T01:56:36;0.70;;;0.70;;
12224;SDS011;6175;50.956;11.064;2024-02-15T01:59:04;0.70;;;0.70;;
12224;SDS011;6175;50.956;11.064;2024-02-15T02:01:31;0.70;;;0.70;;
12224;SDS011;6175;50.956;11.064;2024-02-15T02:03:59;0.60;;;0.60;;
12224;SDS011;6175;50.956;11.064;2024-02-15T02:06:27;0.40;;;0.40;;
12224;SDS011;6175;50.956;11.064;2024-02-15T02:08:54;0.63;;;0.63;;
12224;SDS011;6175;50.956;11.064;2024-02-15T02:11:23;0.38;;;0.38;;
12224;SDS011;6175;50.956;11.064;2024-02-15T02:13:50;0.50;;;0.50;;
12224;SDS011;6175;50.956;11.064;2024-02-15T02:16:23;0.50;;;0.50;;
12224;SDS011;6175;50.956;11.064;2024-02-15T02:18:51;0.50;;;0.50;;
12224;SDS011;6175;50.956;11.064;2024-02-15T02:21:18;0.70;;;0.60;;
12224;SDS011;6175;50.956;11.064;2024-02-15T02:23:45;0.50;;;0.50;;
12224;SDS011;6175;50.956;11.064;2024-02-15T02:26:17;0.93;;;0.70;;
12224;SDS011;6175;50.956;11.064;2024-02-15T02:28:46;0.60;;;0.60;;
12224;SDS011;6175;50.956;11.064;2024-02-15T02:31:13;0.70;;;0.70;;
12224;SDS011;6175;50.956;11.064;2024-02-15T02:33:40;0.90;;;0.82;;
12224;SDS011;6175;50.956;11.064;2024-02-15T02:36:08;0.70;;;0.70;;
12224;SDS011;6175;50.956;11.064;2024-02-15T02:38:37;0.60;;;0.60;;
12224;SDS011;6175;50.956;11.064;2024-02-15T02:41:05;0.60;;;0.60;;
12224;SDS011;6175;50.956;11.064;2024-02-15T02:43:33;0.73;;;0.73;;
12224;SDS011;6175;50.956;11.064;2024-02-15T02:46:00;0.77;;;0.68;;
12224;SDS011;6175;50.956;11.064;2024-02-15T02:48:29;0.73;;;0.60;;
12224;SDS011;6175;50.956;11.064;2024-02-15T02:50:57;0.70;;;0.70;;
12224;SDS011;6175;50.956;11.064;2024-02-15T02:53:24;0.60;;;0.60;;
12224;SDS011;6175;50.956;11.064;2024-02-15T02:55:51;0.90;;;0.90;;
12224;SDS011;6175;50.956;11.064;2024-02-15T02:58:18;0.90;;;0.90;;
12224;SDS011;6175;50.956;11.064;2024-02-15T03:00:47;1.17;;;1.15;;
12224;SDS011;6175;50.956;11.064;2024-02-15T03:03:14;0.90;;;0.90;;
12224;SDS011;6175;50.956;11.064;2024-02-15T03:05:41;1.17;;;0.85;;
12224;SDS011;6175;50.956;11.064;2024-02-15T03:08:08;1.35;;;1.25;;
12224;SDS011;6175;50.956;11.064;2024-02-15T03:10:35;1.38;;;0.98;;
12224;SDS011;6175;50.956;11.064;2024-02-15T03:13:03;1.20;;;1.10;;
12224;SDS011;6175;50.956;11.064;2024-02-15T03:15:30;1.33;;;1.23;;
12224;SDS011;6175;50.956;11.064;2024-02-15T03:17:59;1.55;;;1.33;;
12224;SDS011;6175;50.956;11.064;2024-02-15T03:20:32;1.95;;;1.40;;
12224;SDS011;6175;50.956;11.064;2024-02-15T03:23:00;2.30;;;1.40;;
12224;SDS011;6175;50.956;11.064;2024-02-15T03:25:27;1.75;;;1.65;;
12224;SDS011;6175;50.956;11.064;2024-02-15T03:27:55;1.95;;;1.85;;
12224;SDS011;6175;50.956;11.064;2024-02-15T03:30:23;1.80;;;1.70;;
12224;SDS011;6175;50.956;11.064;2024-02-15T03:32:51;3.03;;;2.15;;
12224;SDS011;6175;50.956;11.064;2024-02-15T03:35:20;2.30;;;2.10;;
12224;SDS011;6175;50.956;11.064;2024-02-15T03:37:48;2.60;;;2.40;;
12224;SDS011;6175;50.956;11.064;2024-02-15T03:40:16;2.10;;;1.90;;
12224;SDS011;6175;50.956;11.064;2024-02-15T03:42:44;2.30;;;2.10;;
12224;SDS011;6175;50.956;11.064;2024-02-15T03:45:11;2.13;;;2.03;;
12224;SDS011;6175;50.956;11.064;2024-02-15T03:47:38;2.47;;;2.28;;
12224;SDS011;6175;50.956;11.064;2024-02-15T03:50:06;2.50;;;2.20;;
12224;SDS011;6175;50.956;11.064;2024-02-15T03:52:36;2.63;;;2.42;;
12224;SDS011;6175;50.956;11.064;2024-02-15T03:55:03;2.72;;;2.53;;
12224;SDS011;6175;50.956;11.064;2024-02-15T03:57:32;2.72;;;2.53;;
12224;SDS011;6175;50.956;11.064;2024-02-15T03:59:59;3.28;;;2.75;;
12224;SDS011;6175;50.956;11.064;2024-02-15T04:02:27;3.47;;;3.00;;
12224;SDS011;6175;50.956;11.064;2024-02-15T04:04:55;3.00;;;2.78;;
12224;SDS011;6175;50.956;11.064;2024-02-15T04:07:22;3.92;;;3.08;;
12224;SDS011;6175;50.956;11.064;2024-02-15T04:09:53;4.03;;;3.63;;
12224;SDS011;6175;50.956;11.064;2024-02-15T04:12:20;3.55;;;3.20;;
12224;SDS011;6175;50.956;11.064;2024-02-15T04:14:47;3.58;;;3.28;;
12224;SDS011;6175;50.956;11.064;2024-02-15T04:17:16;4.18;;;3.05;;
12224;SDS011;6175;50.956;11.064;2024-02-15T04:19:46;4.13;;;3.45;;
12224;SDS011;6175;50.956;11.064;2024-02-15T04:22:15;3.65;;;3.25;;
12224;SDS011;6175;50.956;11.064;2024-02-15T04:24:42;3.55;;;3.25;;
12224;SDS011;6175;50.956;11.064;2024-02-15T04:27:11;3.63;;;3.33;;
12224;SDS011;6175;50.956;11.064;2024-02-15T04:29:39;2.95;;;2.70;;
12224;SDS011;6175;50.956;11.064;2024-02-15T04:32:06;2.80;;;2.53;;
12224;SDS011;6175;50.956;11.064;2024-02-15T04:34:35;2.83;;;2.63;;
12224;SDS011;6175;50.956;11.064;2024-02-15T04:37:02;3.78;;;2.60;;
12224;SDS011;6175;50.956;11.064;2024-02-15T04:39:31;5.50;;;2.92;;
12224;SDS011;6175;50.956;11.064;2024-02-15T04:41:58;2.90;;;2.60;;
12224;SDS011;6175;50.956;11.064;2024-02-15T04:44:26;3.92;;;2.80;;
12224;SDS011;6175;50.956;11.064;2024-02-15T04:46:54;4.90;;;2.90;;
12224;SDS011;6175;50.956;11.064;2024-02-15T04:49:21;3.20;;;2.90;;
12224;SDS011;6175;50.956;11.064;2024-02-15T04:51:48;3.17;;;2.88;;
12224;SDS011;6175;50.956;11.064;2024-02-15T04:54:15;3.30;;;2.53;;
12224;SDS011;6175;50.956;11.064;2024-02-15T04:56:43;3.63;;;3.20;;
12224;SDS011;6175;50.956;11.064;2024-02-15T04:59:11;2.83;;;2.63;;
12224;SDS011;6175;50.956;11.064;2024-02-15T05:01:41;2.72;;;2.53;;
12224;SDS011;6175;50.956;11.064;2024-02-15T05:04:09;3.08;;;2.75;;
12224;SDS011;6175;50.956;11.064;2024-02-15T05:06:36;2.72;;;2.53;;
12224;SDS011;6175;50.956;11.064;2024-02-15T05:09:04;2.90;;;2.63;;
12224;SDS011;6175;50.956;11.064;2024-02-15T05:11:32;4.10;;;2.75;;
12224;SDS011;6175;50.956;11.064;2024-02-15T05:14:00;4.28;;;2.88;;
12224;SDS011;6175;50.956;11.064;2024-02-15T05:16:27;3.15;;;2.85;;
12224;SDS011;6175;50.956;11.064;2024-02-15T05:18:57;3.78;;;2.80;;
12224;SDS011;6175;50.956;11.064;2024-02-15T05:21:24;2.88;;;2.42;;
12224;SDS011;6175;50.956;11.064;2024-02-15T05:23:52;2.88;;;2.30;;
12224;SDS011;6175;50.956;11.064;2024-02-15T05:26:20;3.97;;;2.58;;
12224;SDS011;6175;50.956;11.064;2024-02-15T05:28:48;3.35;;;2.25;;
12224;SDS011;6175;50.956;11.064;2024-02-15T05:31:17;2.45;;;2.17;;
12224;SDS011;6175;50.956;11.064;2024-02-15T05:33:45;3.08;;;2.28;;
12224;SDS011;6175;50.956;11.064;2024-02-15T05:36:14;2.85;;;2.30;;
12224;SDS011;6175;50.956;11.064;2024-02-15T05:38:46;2.83;;;2.30;;
12224;SDS011;6175;50.956;11.064;2024-02-15T05:41:13;2.40;;;2.20;;
12224;SDS011;6175;50.956;11.064;2024-02-15T05:43:41;3.35;;;2.50;;
12224;SDS011;6175;50.956;11.064;2024-02-15T05:46:08;2.50;;;2.30;;
12224;SDS011;6175;50.956;11.064;2024-02-15T05:48:36;5.30;;;2.92;;
12224;SDS011;6175;50.956;11.064;2024-02-15T05:51:04;2.28;;;2.17;;
12224;SDS011;6175;50.956;11.064;2024-02-15T05:53:33;2.38;;;2.17;;
12224;SDS011;6175;50.956;11.064;2024-02-15T05:56:01;4.07;;;2.40;;
12224;SDS011;6175;50.956;11.064;2024-02-15T05:58:29;3.38;;;2.35;;
12224;SDS011;6175;50.956;11.064;2024-02-15T06:00:56;6.72;;;2.83;;
12224;SDS011;6175;50.956;11.064;2024-02-15T06:03:26;3.92;;;2.55;;
12224;SDS011;6175;50.956;11.064;2024-02-15T06:05:53;3.80;;;2.42;;
12224;SDS011;6175;50.956;11.064;2024-02-15T06:08:23;5.18;;;2.83;;
12224;SDS011;6175;50.956;11.064;2024-02-15T06:10:51;3.90;;;2.35;;
12224;SDS011;6175;50.956;11.064;2024-02-15T06:13:19;3.97;;;2.47;;
12224;SDS011;6175;50.956;11.064;2024-02-15T06:15:46;3.15;;;2.50;;
12224;SDS011;6175;50.956;11.064;2024-02-15T06:18:17;2.50;;;2.30;;
12224;SDS011;6175;50.956;11.064;2024-02-15T06:20:46;2.00;;;1.80;;
12224;SDS011;6175;50.956;11.064;2024-02-15T06:23:15;4.53;;;2.45;;
12224;SDS011;6175;50.956;11.064;2024-02-15T06:25:42;2.58;;;2.33;;
12224;SDS011;6175;50.956;11.064;2024-02-15T06:28:10;2.03;;;1.90;;
12224;SDS011;6175;50.956;11.064;2024-02-15T06:31:05;2.35;;;2.15;;
12224;SDS011;6175;50.956;11.064;2024-02-15T06:33:50;3.42;;;2.40;;
12224;SDS011;6175;50.956;11.064;2024-02-15T06:36:38;3.70;;;2.25;;
12224;SDS011;6175;50.956;11.064;2024-02-15T06:39:23;2.70;;;2.08;;
12224;SDS011;6175;50.956;11.064;2024-02-15T06:42:06;2.97;;;2.20;;
12224;SDS011;6175;50.956;11.064;2024-02-15T06:44:35;2.20;;;1.95;;
12224;SDS011;6175;50.956;11.064;2024-02-15T06:47:03;2.35;;;2.15;;
12224;SDS011;6175;50.956;11.064;2024-02-15T06:49:31;2.00;;;1.80;;
12224;SDS011;6175;50.956;11.064;2024-02-15T06:51:59;3.20;;;1.90;;
12224;SDS011;6175;50.956;11.064;2024-02-15T06:54:27;3.15;;;2.15;;
12224;SDS011;6175;50.956;11.064;2024-02-15T06:56:54;2.13;;;1.92;;
12224;SDS011;6175;50.956;11.064;2024-02-15T06:59:21;1.80;;;1.70;;
12224;SDS011;6175;50.956;11.064;2024-02-15T07:01:50;2.80;;;2.20;;
12224;SDS011;6175;50.956;11.064;2024-02-15T07:04:18;3.85;;;2.28;;
12224;SDS011;6175;50.956;11.064;2024-02-15T07:06:45;4.20;;;2.10;;
12224;SDS011;6175;50.956;11.064;2024-02-15T07:09:13;2.42;;;2.15;;
12224;SDS011;6175;50.956;11.064;2024-02-15T07:11:42;3.55;;;2.35;;
12224;SDS011;6175;50.956;11.064;2024-02-15T07:14:11;2.85;;;2.10;;
12224;SDS011;6175;50.956;11.064;2024-02-15T07:16:38;2.13;;;1.90;;
12224;SDS011;6175;50.956;11.064;2024-02-15T07:19:07;2.28;;;1.60;;
12224;SDS011;6175;50.956;11.064;2024-02-15T07:21:34;1.98;;;1.80;;
12224;SDS011;6175;50.956;11.064;2024-02-15T07:24:03;1.77;;;1.50;;
12224;SDS011;6175;50.956;11.064;2024-02-15T07:26:30;1.50;;;1.40;;
12224;SDS011;6175;50.956;11.064;2024-02-15T07:29:00;2.28;;;1.70;;
12224;SDS011;6175;50.956;11.064;2024-02-15T07:31:27;1.55;;;1.45;;
12224;SDS011;6175;50.956;11.064;2024-02-15T07:33:55;1.98;;;1.50;;
12224;SDS011;6175;50.956;11.064;2024-02-15T07:36:24;1.30;;;1.20;;
12224;SDS011;6175;50.956;11.064;2024-02-15T07:38:52;1.60;;;1.35;;
12224;SDS011;6175;50.956;11.064;2024-02-15T07:41:22;1.35;;;1.20;;
12224;SDS011;6175;50.956;11.064;2024-02-15T07:43:50;1.55;;;1.42;;
12224;SDS011;6175;50.956;11.064;2024-02-15T07:46:19;1.48;;;1.38;;
12224;SDS011;6175;50.956;11.064;2024-02-15T07:48:47;1.75;;;1.65;;
12224;SDS011;6175;50.956;11.064;2024-02-15T07:51:14;2.25;;;1.70;;
12224;SDS011;6175;50.956;11.064;2024-02-15T07:53:44;1.55;;;1.45;;
12224;SDS011;6175;50.956;11.064;2024-02-15T07:56:11;2.35;;;1.70;;
12224;SDS011;6175;50.956;11.064;2024-02-15T07:58:39;1.90;;;1.80;;
12224;SDS011;6175;50.956;11.064;2024-02-15T08:01:07;1.88;;;1.77;;
12224;SDS011;6175;50.956;11.064;2024-02-15T08:03:35;2.05;;;1.50;;
12224;SDS011;6175;50.956;11.064;2024-02-15T08:06:02;1.63;;;1.52;;
12224;SDS011;6175;50.956;11.064;2024-02-15T08:08:31;2.25;;;1.60;;
12224;SDS011;6175;50.956;11.064;2024-02-15T08:11:01;1.88;;;1.65;;
12224;SDS011;6175;50.956;11.064;2024-02-15T08:13:29;2.35;;;1.90;;
12224;SDS011;6175;50.956;11.064;2024-02-15T08:15:56;2.30;;;1.88;;
12224;SDS011;6175;50.956;11.064;2024-02-15T08:18:23;1.90;;;1.70;;
12224;SDS011;6175;50.956;11.064;2024-02-15T08:20:50;2.35;;;1.92;;
12224;SDS011;6175;50.956;11.064;2024-02-15T08:23:18;1.88;;;1.60;;
12224;SDS011;6175;50.956;11.064;2024-02-15T08:25:45;2.97;;;2.10;;
12224;SDS011;6175;50.956;11.064;2024-02-15T08:28:14;2.30;;;2.10;;
12224;SDS011;6175;50.956;11.064;2024-02-15T08:30:41;2.42;;;2.03;;
12224;SDS011;6175;50.956;11.064;2024-02-15T08:33:08;3.90;;;1.90;;
12224;SDS011;6175;50.956;11.064;2024-02-15T08:35:36;2.75;;;1.90;;
12224;SDS011;6175;50.956;11.064;2024-02-15T08:38:05;5.03;;;2.15;;
12224;SDS011;6175;50.956;11.064;2024-02-15T08:40:32;3.72;;;2.45;;
12224;SDS011;6175;50.956;11.064;2024-02-15T08:43:00;3.40;;;2.20;;
12224;SDS011;6175;50.956;11.064;2024-02-15T08:45:29;3.45;;;2.13;;
12224;SDS011;6175;50.956;11.064;2024-02-15T08:47:56;2.60;;;2.40;;
12224;SDS011;6175;50.956;11.064;2024-02-15T08:50:23;2.58;;;2.25;;
12224;SDS011;6175;50.956;11.064;2024-02-15T08:52:50;2.78;;;2.25;;
12224;SDS011;6175;50.956;11.064;2024-02-15T08:55:17;2.53;;;2.33;;
12224;SDS011;6175;50.956;11.064;2024-02-15T08:57:49;2.67;;;2.42;;
12224;SDS011;6175;50.956;11.064;2024-02-15T09:00:16;2.80;;;2.60;;
12224;SDS011;6175;50.956;11.064;2024-02-15T09:02:44;3.50;;;2.65;;
12224;SDS011;6175;50.956;11.064;2024-02-15T09:05:12;2.60;;;2.40;;
12224;SDS011;6175;50.956;11.064;2024-02-15T09:07:39;2.50;;;2.30;;
12224;SDS011;6175;50.956;11.064;2024-02-15T09:10:08;3.17;;;2.88;;
12224;SDS011;6175;50.956;11.064;2024-02-15T09:12:36;3.35;;;2.90;;
12224;SDS011;6175;50.956;11.064;2024-02-15T09:15:05;4.00;;;2.78;;
12224;SDS011;6175;50.956;11.064;2024-02-15T09:17:33;4.65;;;2.60;;
12224;SDS011;6175;50.956;11.064;2024-02-15T09:20:06;3.42;;;3.13;;
12224;SDS011;6175;50.956;11.064;2024-02-15T09:22:33;3.28;;;2.50;;
12224;SDS011;6175;50.956;11.064;2024-02-15T09:25:01;3.10;;;2.80;;
12224;SDS011;6175;50.956;11.064;2024-02-15T09:27:28;4.28;;;2.80;;
12224;SDS011;6175;50.956;11.064;2024-02-15T09:29:56;2.88;;;2.58;;
12224;SDS011;6175;50.956;11.064;2024-02-15T09:32:24;3.35;;;2.83;;
12224;SDS011;6175;50.956;11.064;2024-02-15T09:34:51;2.70;;;2.50;;
12224;SDS011;6175;50.956;11.064;2024-02-15T09:37:19;3.20;;;2.72;;
12224;SDS011;6175;50.956;11.064;2024-02-15T09:39:46;3.50;;;2.50;;
12224;SDS011;6175;50.956;11.064;2024-02-15T09:42:13;3.08;;;2.45;;
12224;SDS011;6175;50.956;11.064;2024-02-15T09:44:40;2.40;;;2.20;;
12224;SDS011;6175;50.956;11.064;2024-02-15T09:47:09;2.42;;;2.17;;
12224;SDS011;6175;50.956;11.064;2024-02-15T09:49:40;3.40;;;2.30;;
12224;SDS011;6175;50.956;11.064;2024-02-15T09:52:07;2.20;;;2.00;;
12224;SDS011;6175;50.956;11.064;2024-02-15T09:54:39;2.20;;;2.00;;
12224;SDS011;6175;50.956;11.064;2024-02-15T09:57:08;2.80;;;2.00;;
12224;SDS011;6175;50.956;11.064;2024-02-15T09:59:35;2.30;;;2.10;;
12224;SDS011;6175;50.956;11.064;2024-02-15T10:02:03;2.38;;;1.98;;
12224;SDS011;6175;50.956;11.064;2024-02-15T10:04:34;2.17;;;1.90;;
12224;SDS011;6175;50.956;11.064;2024-02-15T10:07:01;2.30;;;1.95;;
12224;SDS011;6175;50.956;11.064;2024-02-15T10:09:29;2.80;;;2.20;;
12224;SDS011;6175;50.956;11.064;2024-02-15T10:11:58;1.80;;;1.70;;
12224;SDS011;6175;50.956;11.064;2024-02-15T10:14:25;2.90;;;1.85;;
12224;SDS011;6175;50.956;11.064;2024-02-15T10:16:54;2.63;;;2.00;;
12224;SDS011;6175;50.956;11.064;2024-02-15T10:19:21;3.83;;;2.05;;
12224;SDS011;6175;50.956;11.064;2024-02-15T10:21:51;2.13;;;1.80;;
12224;SDS011;6175;50.956;11.064;2024-02-15T10:24:20;2.30;;;2.10;;
12224;SDS011;6175;50.956;11.064;2024-02-15T10:26:49;3.10;;;2.30;;
12224;SDS011;6175;50.956;11.064;2024-02-15T10:29:18;2.30;;;2.10;;
12224;SDS011;6175;50.956;11.064;2024-02-15T10:31:52;3.78;;;2.40;;
12224;SDS011;6175;50.956;11.064;2024-02-15T10:34:20;4.05;;;2.17;;
12224;SDS011;6175;50.956;11.064;2024-02-15T10:36:48;2.83;;;2.50;;
12224;SDS011;6175;50.956;11.064;2024-02-15T10:39:15;2.40;;;2.20;;
12224;SDS011;6175;50.956;11.064;2024-02-15T10:41:44;2.03;;;1.90;;
12224;SDS011;6175;50.956;11.064;2024-02-15T10:44:13;2.50;;;2.20;;
12224;SDS011;6175;50.956;11.064;2024-02-15T10:46:44;2.28;;;2.08;;
12224;SDS011;6175;50.956;11.064;2024-02-15T10:49:16;2.22;;;1.90;;
12224;SDS011;6175;50.956;11.064;2024-02-15T10:51:43;2.80;;;2.05;;
12224;SDS011;6175;50.956;11.064;2024-02-15T10:54:14;2.17;;;2.00;;
12224;SDS011;6175;50.956;11.064;2024-02-15T10:56:45;2.15;;;1.90;;
12224;SDS011;6175;50.956;11.064;2024-02-15T10:59:21;1.75;;;1.65;;
12224;SDS011;6175;50.956;11.064;2024-02-15T11:01:57;2.83;;;1.90;;
12224;SDS011;6175;50.956;11.064;2024-02-15T11:04:30;2.08;;;1.88;;
12224;SDS011;6175;50.956;11.064;2024-02-15T11:07:01;2.08;;;1.92;;
12224;SDS011;6175;50.956;11.064;2024-02-15T11:09:31;2.40;;;1.95;;
12224;SDS011;6175;50.956;11.064;2024-02-15T11:11:58;3.92;;;1.80;;
12224;SDS011;6175;50.956;11.064;2024-02-15T11:14:26;1.95;;;1.42;;
12224;SDS011;6175;50.956;11.064;2024-02-15T11:16:54;2.58;;;1.40;;
12224;SDS011;6175;50.956;11.064;2024-02-15T11:19:42;2.42;;;1.50;;
12224;SDS011;6175;50.956;11.064;2024-02-15T11:22:13;1.98;;;1.30;;
12224;SDS011;6175;50.956;11.064;2024-02-15T11:24:47;1.63;;;1.50;;
12224;SDS011;6175;50.956;11.064;2024-02-15T11:27:26;2.15;;;1.60;;
12224;SDS011;6175;50.956;11.064;2024-02-15T11:29:54;2.03;;;1.40;;
12224;SDS011;6175;50.956;11.064;2024-02-15T11:35:14;1.60;;;1.50;;
12224;SDS011;6175;50.956;11.064;2024-02-15T11:37:50;2.08;;;1.55;;
12224;SDS011;6175;50.956;11.064;2024-02-15T11:40:18;2.20;;;1.42;;
12224;SDS011;6175;50.956;11.064;2024-02-15T11:42:47;1.50;;;1.40;;
12224;SDS011;6175;50.956;11.064;2024-02-15T11:45:15;1.40;;;1.30;;
12224;SDS011;6175;50.956;11.064;2024-02-15T11:47:46;1.75;;;1.20;;
12224;SDS011;6175;50.956;11.064;2024-02-15T11:50:17;1.75;;;1.23;;
12224;SDS011;6175;50.956;11.064;2024-02-15T11:52:45;1.52;;;1.42;;
12224;SDS011;6175;50.956;11.064;2024-02-15T11:55:14;1.45;;;1.35;;
12224;SDS011;6175;50.956;11.064;2024-02-15T11:57:54;1.50;;;1.40;;
12224;SDS011;6175;50.956;11.064;2024-02-15T12:00:27;1.35;;;1.23;;
12224;SDS011;6175;50.956;11.064;2024-02-15T12:03:13;1.27;;;1.20;;
12224;SDS011;6175;50.956;11.064;2024-02-15T12:05:59;2.08;;;1.40;;
12224;SDS011;6175;50.956;11.064;2024-02-15T12:08:45;2.03;;;1.60;;
12224;SDS011;6175;50.956;11.064;2024-02-15T12:11:29;1.50;;;1.40;;
12224;SDS011;6175;50.956;11.064;2024-02-15T12:14:14;2.22;;;1.30;;
12224;SDS011;6175;50.956;11.064;2024-02-15T12:16:59;1.50;;;1.40;;
12224;SDS011;6175;50.956;11.064;2024-02-15T12:19:44;1.30;;;1.20;;
12224;SDS011;6175;50.956;11.064;2024-02-15T12:22:14;1.83;;;1.73;;
12224;SDS011;6175;50.956;11.064;2024-02-15T12:24:45;1.60;;;1.50;;
12224;SDS011;6175;50.956;11.064;2024-02-15T12:27:20;1.50;;;1.40;;
12224;SDS011;6175;50.956;11.064;2024-02-15T12:29:52;2.25;;;1.40;;
12224;SDS011;6175;50.956;11.064;2024-02-15T12:32:20;1.25;;;1.15;;
12224;SDS011;6175;50.956;11.064;2024-02-15T12:34:47;1.42;;;1.23;;
12224;SDS011;6175;50.956;11.064;2024-02-15T12:37:16;1.38;;;1.27;;
12224;SDS011;6175;50.956;11.064;2024-02-15T12:39:45;1.67;;;1.48;;
12224;SDS011;6175;50.956;11.064;2024-02-15T12:42:12;1.27;;;1.17;;
12224;SDS011;6175;50.956;11.064;2024-02-15T12:44:42;1.40;;;1.30;;
12224;SDS011;6175;50.956;11.064;2024-02-15T12:47:16;2.58;;;1.55;;
12224;SDS011;6175;50.956;11.064;2024-02-15T12:49:45;1.40;;;1.30;;
12224;SDS011;6175;50.956;11.064;2024-02-15T12:52:33;1.50;;;1.40;;
12224;SDS011;6175;50.956;11.064;2024-02-15T12:55:13;1.40;;;1.30;;
12224;SDS011;6175;50.956;11.064;2024-02-15T12:57:42;1.60;;;1.50;;
12224;SDS011;6175;50.956;11.064;2024-02-15T13:00:13;2.80;;;1.48;;
12224;SDS011;6175;50.956;11.064;2024-02-15T13:02:44;1.40;;;1.30;;
12224;SDS011;6175;50.956;11.064;2024-02-15T13:05:12;1.38;;;1.27;;
12224;SDS011;6175;50.956;11.064;2024-02-15T13:07:41;1.50;;;1.40;;
12224;SDS011;6175;50.956;11.064;2024-02-15T13:10:08;1.70;;;1.58;;
12224;SDS011;6175;50.956;11.064;2024-02-15T13:12:36;3.17;;;1.27;;
12224;SDS011;6175;50.956;11.064;2024-02-15T13:15:03;1.70;;;1.60;;
12224;SDS011;6175;50.956;11.064;2024-02-15T13:17:31;1.40;;;1.30;;
12224;SDS011;6175;50.956;11.064;2024-02-15T13:19:59;2.25;;;1.33;;
12224;SDS011;6175;50.956;11.064;2024-02-15T13:22:30;1.80;;;1.40;;
12224;SDS011;6175;50.956;11.064;2024-02-15T13:24:59;1.73;;;1.40;;
12224;SDS011;6175;50.956;11.064;2024-02-15T13:27:28;1.70;;;1.60;;
12224;SDS011;6175;50.956;11.064;2024-02-15T13:29:55;1.65;;;1.55;;
12224;SDS011;6175;50.956;11.064;2024-02-15T13:32:23;1.73;;;1.40;;
12224;SDS011;6175;50.956;11.064;2024-02-15T13:34:50;1.70;;;1.40;;
12224;SDS011;6175;50.956;11.064;2024-02-15T13:37:21;1.80;;;1.70;;
12224;SDS011;6175;50.956;11.064;2024-02-15T13:39:49;1.95;;;1.50;;
12224;SDS011;6175;50.956;11.064;2024-02-15T13:42:17;1.60;;;1.48;;
12224;SDS011;6175;50.956;11.064;2024-02-15T13:44:44;2.20;;;1.70;;
12224;SDS011;6175;50.956;11.064;2024-02-15T13:47:12;1.77;;;1.63;;
12224;SDS011;6175;50.956;11.064;2024-02-15T13:49:41;2.28;;;1.65;;
12224;SDS011;6175;50.956;11.064;2024-02-15T13:52:08;1.88;;;1.38;;
12224;SDS011;6175;50.956;11.064;2024-02-15T13:54:36;3.92;;;1.80;;
12224;SDS011;6175;50.956;11.064;2024-02-15T13:57:04;2.03;;;1.60;;
12224;SDS011;6175;50.956;11.064;2024-02-15T13:59:33;3.17;;;1.50;;
12224;SDS011;6175;50.956;11.064;2024-02-15T14:02:00;2.05;;;1.42;;
12224;SDS011;6175;50.956;11.064;2024-02-15T14:04:28;2.22;;;1.50;;
12224;SDS011;6175;50.956;11.064;2024-02-15T14:06:57;1.70;;;1.55;;
12224;SDS011;6175;50.956;11.064;2024-02-15T14:09:25;5.22;;;1.83;;
12224;SDS011;6175;50.956;11.064;2024-02-15T14:11:52;3.45;;;1.40;;
12224;SDS011;6175;50.956;11.064;2024-02-15T14:14:19;2.78;;;1.65;;
12224;SDS011;6175;50.956;11.064;2024-02-15T14:16:50;3.08;;;1.70;;
12224;SDS011;6175;50.956;11.064;2024-02-15T14:19:17;2.88;;;1.60;;
12224;SDS011;6175;50.956;11.064;2024-02-15T14:21:46;2.70;;;1.60;;
12224;SDS011;6175;50.956;11.064;2024-02-15T14:24:13;2.13;;;1.60;;
12224;SDS011;6175;50.956;11.064;2024-02-15T14:26:41;2.03;;;1.20;;
12224;SDS011;6175;50.956;11.064;2024-02-15T14:29:08;1.73;;;1.45;;
12224;SDS011;6175;50.956;11.064;2024-02-15T14:31:35;3.15;;;1.45;;
12224;SDS011;6175;50.956;11.064;2024-02-15T14:34:21;2.28;;;1.65;;
12224;SDS011;6175;50.956;11.064;2024-02-15T14:36:50;2.70;;;1.63;;
12224;SDS011;6175;50.956;11.064;2024-02-15T14:39:17;2.95;;;1.55;;
12224;SDS011;6175;50.956;11.064;2024-02-15T14:41:44;2.55;;;1.80;;
12224;SDS011;6175;50.956;11.064;2024-02-15T14:44:11;3.85;;;1.60;;
12224;SDS011;6175;50.956;11.064;2024-02-15T14:46:39;3.10;;;1.50;;
12224;SDS011;6175;50.956;11.064;2024-02-15T14:49:06;3.55;;;1.60;;
12224;SDS011;6175;50.956;11.064;2024-02-15T14:51:34;2.83;;;1.70;;
12224;SDS011;6175;50.956;11.064;2024-02-15T14:54:04;3.55;;;1.50;;
12224;SDS011;6175;50.956;11.064;2024-02-15T14:56:31;2.28;;;1.17;;
12224;SDS011;6175;50.956;11.064;2024-02-15T14:58:58;1.65;;;1.50;;
12224;SDS011;6175;50.956;11.064;2024-02-15T15:01:26;2.92;;;1.70;;